This is the latest recevied weather packets stored in our database for station/object EA1PVC-10. If no packets are shown the sender has not sent any weather packets the latest 10 day(s).
| Time | Temp. | Humidity | Pressure | Rain* | Wind** | Luminosity | Snow |
|---|---|---|---|---|---|---|---|
| 1777685204 | 14.44° C | 70% | 923.9 hPa | - | - | - | - |
| 1777684304 | 14.44° C | 72% | 923.9 hPa | - | - | - | - |
| 1777682504 | 12.78° C | 68% | 921.3 hPa | - | - | - | - |
| 1777681604 | 15.56° C | 67% | 924.2 hPa | - | - | - | - |
| 1777680704 | 15.56° C | 65% | 924.3 hPa | - | - | - | - |
| 1777679804 | 15.56° C | 65% | 924.3 hPa | - | - | - | - |
| 1777678904 | 15.56° C | 65% | 924.4 hPa | - | - | - | - |
| 1777678004 | 15.56° C | 63% | 925.5 hPa | - | - | - | - |
| 1777677092 | 16.11° C | 62% | 924.5 hPa | - | - | - | - |
| 1777676192 | 16.11° C | 59% | 924.5 hPa | - | - | - | - |
| 1777675292 | 16.11° C | 59% | 924.6 hPa | - | - | - | - |
| 1777674393 | 16.67° C | 54% | 924.8 hPa | - | - | - | - |
| 1777673492 | 16.67° C | 54% | 924.8 hPa | - | - | - | - |
| 1777672592 | 16.67° C | 53% | 924.8 hPa | - | - | - | - |
| 1777671692 | 16.67° C | 53% | 925 hPa | - | - | - | - |
| 1777670792 | 17.22° C | 52% | 925.1 hPa | - | - | - | - |
| 1777669892 | 17.22° C | 51% | 925 hPa | - | - | - | - |
| 1777668992 | 17.22° C | 51% | 925 hPa | - | - | - | - |
| 1777668092 | 17.78° C | 51% | 924.8 hPa | - | - | - | - |
| 1777667192 | 17.78° C | 51% | 925.7 hPa | - | - | - | - |
| 1777666280 | 17.78° C | 50% | 924.7 hPa | - | - | - | - |
| 1777665380 | 18.33° C | 49% | 924.6 hPa | - | - | - | - |
| 1777664480 | 18.33° C | 48% | 924.6 hPa | - | - | - | - |
| 1777663580 | 18.33° C | 47% | 924.5 hPa | - | - | - | - |
| 1777662680 | 18.89° C | 45% | 925.1 hPa | - | - | - | - |
* Rain since midnight (hover to see other rain measurements)
** Current wind speed in m/s (hover to see current wind gust speed)